createdAt,value
2019-04-05T00:04:38.677Z,151.42
2019-04-05T00:09:44.759Z,144.27
2019-04-05T00:14:50.834Z,145.70
2019-04-05T00:19:56.818Z,155.63
2019-04-05T00:25:02.765Z,158.45
2019-04-05T00:30:08.845Z,141.13
2019-04-05T00:35:14.816Z,156.60
2019-04-05T00:40:20.797Z,147.87
2019-04-05T00:45:28.485Z,157.47
2019-04-05T00:50:35.153Z,140.00
2019-04-05T00:55:41.207Z,140.77
2019-04-05T01:01:04.539Z,145.07
2019-04-05T01:06:10.506Z,140.67
2019-04-05T01:11:19.175Z,140.73
2019-04-05T01:16:25.828Z,147.13
2019-04-05T01:26:37.045Z,147.70
2019-04-05T01:31:43.011Z,143.37
2019-04-05T01:36:48.984Z,139.57
2019-04-05T01:41:54.872Z,159.18
2019-04-05T01:47:00.731Z,139.28
2019-04-05T01:52:06.706Z,135.37
2019-04-05T01:57:12.675Z,137.33
2019-04-05T02:02:18.647Z,142.57
2019-04-05T02:07:24.620Z,148.85
2019-04-05T02:22:42.534Z,135.20
2019-04-05T02:27:49.529Z,135.90
2019-04-05T02:32:55.716Z,135.10
2019-04-05T02:38:01.771Z,131.83
2019-04-05T02:43:07.879Z,135.43
2019-04-05T02:53:18.973Z,135.00
2019-04-05T02:58:25.142Z,136.20
2019-04-05T03:03:31.158Z,143.00
2019-04-05T03:13:43.169Z,137.93
2019-04-05T03:18:49.154Z,127.43
2019-04-05T03:23:55.217Z,128.62
2019-04-05T03:34:06.965Z,134.82
2019-04-05T03:39:13.223Z,123.97
2019-04-05T03:44:22.819Z,133.53
2019-04-05T03:49:26.803Z,131.57
2019-04-05T03:54:32.978Z,137.12
2019-04-05T03:59:38.945Z,144.03
2019-04-05T04:04:45.090Z,130.50
2019-04-05T04:09:51.055Z,134.55
2019-04-05T04:14:58.693Z,130.73
2019-04-05T04:20:04.787Z,135.00
2019-04-05T04:30:17.427Z,133.27
2019-04-05T04:35:23.603Z,130.85
2019-04-05T04:40:29.672Z,141.13
2019-04-05T04:45:35.640Z,132.03
2019-04-05T04:50:41.729Z,148.97
2019-04-05T04:55:47.798Z,132.93
2019-04-05T05:00:53.869Z,140.73
2019-04-05T05:05:59.840Z,142.65
2019-04-05T05:11:14.364Z,138.52
2019-04-05T05:16:13.735Z,137.63
2019-04-05T05:21:19.813Z,138.57
2019-04-05T05:26:25.762Z,132.20
2019-04-05T05:31:31.835Z,144.85
2019-04-05T05:36:37.946Z,135.72
2019-04-05T05:41:44.015Z,134.50
2019-04-05T05:51:55.823Z,136.73
2019-04-05T05:57:01.688Z,129.77
2019-04-05T06:02:07.777Z,132.77
2019-04-05T06:07:13.731Z,135.07
2019-04-05T06:12:19.802Z,131.20
2019-04-05T06:17:25.773Z,126.07
2019-04-05T06:22:31.729Z,130.43
2019-04-05T06:27:37.721Z,127.03
2019-04-05T06:32:43.793Z,128.43
2019-04-05T06:37:49.757Z,128.90
2019-04-05T06:42:55.860Z,133.07
2019-04-05T06:48:01.801Z,136.20
2019-04-05T06:53:07.777Z,119.87
2019-04-05T06:58:19.879Z,130.43
2019-04-05T07:03:37.316Z,137.45
2019-04-05T07:08:53.030Z,133.15
2019-04-05T07:13:51.642Z,122.97
2019-04-05T07:19:01.027Z,133.75
2019-04-05T07:24:07.775Z,163.33
2019-04-05T07:34:20.438Z,561.90
2019-04-05T07:39:26.606Z,541.63
2019-04-05T07:44:32.679Z,406.53
2019-04-05T07:49:38.663Z,314.37
2019-04-05T07:54:44.637Z,241.67
2019-04-05T07:59:50.612Z,207.50
2019-04-05T08:04:56.581Z,167.07
2019-04-05T08:10:03.342Z,163.10
2019-04-05T08:15:09.326Z,151.03
2019-04-05T08:20:15.294Z,143.80
2019-04-05T08:25:21.280Z,156.50
2019-04-05T08:30:27.350Z,145.77
2019-04-05T08:35:33.315Z,152.00
2019-04-05T08:40:39.390Z,146.23
2019-04-05T08:45:45.651Z,141.97
2019-04-05T08:50:51.731Z,145.07
2019-04-05T09:06:09.450Z,131.90
2019-04-05T09:11:15.733Z,128.93
2019-04-05T09:16:21.718Z,139.37
2019-04-05T09:21:27.759Z,135.37
2019-04-05T09:26:33.737Z,131.67
2019-04-05T09:31:39.821Z,140.40
2019-04-05T09:36:45.781Z,132.43
2019-04-05T09:41:51.955Z,138.70
2019-04-05T09:46:58.108Z,130.53
2019-04-05T09:52:05.120Z,141.15
2019-04-05T09:57:11.132Z,147.93
2019-04-05T10:02:16.853Z,135.12
2019-04-05T10:07:22.831Z,140.83
2019-04-05T10:12:28.794Z,144.97
2019-04-05T10:17:34.768Z,128.20
2019-04-05T10:22:40.859Z,135.00
2019-04-05T10:27:46.809Z,139.50
2019-04-05T10:32:52.782Z,141.80
2019-04-05T10:37:58.753Z,143.82
2019-04-05T10:43:04.721Z,134.60
2019-04-05T10:48:10.793Z,137.80
2019-04-05T10:53:16.762Z,129.17
2019-04-05T10:58:22.845Z,140.85
2019-04-05T11:03:28.808Z,128.60
2019-04-05T11:08:34.781Z,132.45
2019-04-05T11:13:40.750Z,129.67
2019-04-05T11:18:46.725Z,124.60
2019-04-05T11:23:55.616Z,134.80
2019-04-05T11:29:02.961Z,136.40
2019-04-05T11:39:14.819Z,139.17
2019-04-05T11:44:21.917Z,130.13
2019-04-05T11:49:27.977Z,134.67
2019-04-05T11:54:34.143Z,132.73
2019-04-05T12:04:45.787Z,126.37
2019-04-05T12:09:51.753Z,126.20
2019-04-05T12:14:57.726Z,125.37
2019-04-05T12:20:03.697Z,136.33
2019-04-05T12:30:17.139Z,141.40
2019-04-05T12:35:23.194Z,136.18
2019-04-05T12:40:29.184Z,132.63
2019-04-05T12:50:44.724Z,141.47
2019-04-05T12:55:51.655Z,126.10
2019-04-05T13:00:57.614Z,120.13
2019-04-05T13:16:32.410Z,136.15
2019-04-05T13:21:38.498Z,139.50
2019-04-05T13:31:50.538Z,123.17
2019-04-05T13:36:56.715Z,138.10
2019-04-05T13:42:02.721Z,134.78
2019-04-05T13:47:09.138Z,514.33
2019-04-05T13:57:21.086Z,564.27
2019-04-05T14:02:27.685Z,515.03
2019-04-05T14:07:35.881Z,412.97
2019-04-05T14:12:41.787Z,294.80
2019-04-05T14:17:49.241Z,379.07
2019-04-05T14:22:55.372Z,402.17
2019-04-05T14:28:02.498Z,480.60
2019-04-05T14:38:16.757Z,418.83
2019-04-05T14:43:25.370Z,286.17
2019-04-05T14:48:31.993Z,315.70
2019-04-05T14:53:38.196Z,369.70
2019-04-05T15:03:49.893Z,457.80
2019-04-05T15:08:55.958Z,415.10
2019-04-05T15:14:02.141Z,518.20
2019-04-05T15:19:08.143Z,323.15
2019-04-05T15:24:16.915Z,680.63
2019-04-05T15:29:23.609Z,362.73
2019-04-05T15:34:30.526Z,719.47
2019-04-05T15:39:36.805Z,643.57
2019-04-05T15:49:50.123Z,521.37
2019-04-05T15:54:56.570Z,866.30
2019-04-05T16:00:04.775Z,1030.27
2019-04-05T16:05:11.160Z,789.27
2019-04-05T16:15:23.159Z,730.15
2019-04-05T16:20:29.381Z,533.67
2019-04-05T16:25:36.195Z,607.10
2019-04-05T16:30:43.648Z,661.27
2019-04-05T16:40:55.538Z,678.67
2019-04-05T16:46:01.899Z,413.57
2019-04-05T16:51:07.969Z,322.47
2019-04-05T16:56:14.628Z,249.77
2019-04-05T17:01:27.373Z,205.80
2019-04-05T17:06:36.672Z,178.60
2019-04-05T17:11:42.833Z,161.53
2019-04-05T17:16:48.140Z,284.90
2019-04-05T17:22:06.125Z,303.07
2019-04-05T17:27:08.820Z,616.80
2019-04-05T17:32:14.785Z,711.57
2019-04-05T17:37:20.770Z,545.57
2019-04-05T17:42:26.725Z,705.60
2019-04-05T17:47:34.373Z,657.20
2019-04-05T17:52:40.508Z,792.83
2019-04-05T17:57:46.785Z,692.53
2019-04-05T18:02:53.145Z,710.43
2019-04-05T18:07:59.205Z,641.73
2019-04-05T18:13:05.525Z,491.20
2019-04-05T18:23:25.371Z,640.50
2019-04-05T18:28:28.661Z,542.97
2019-04-05T18:33:34.629Z,479.83
2019-04-05T18:38:40.702Z,476.90
2019-04-05T18:43:47.116Z,369.80
2019-04-05T18:53:59.167Z,409.80
2019-04-05T19:04:10.958Z,325.63
2019-04-05T19:09:38.454Z,220.50
2019-04-05T19:14:44.723Z,198.05
2019-04-05T19:19:50.702Z,352.43
2019-04-05T19:24:56.757Z,314.72
2019-04-05T19:50:32.957Z,292.57
2019-04-05T19:55:39.137Z,600.90
2019-04-05T20:00:45.419Z,659.60
2019-04-05T20:05:51.513Z,639.08
2019-04-05T20:10:57.869Z,763.90
2019-04-05T20:16:03.836Z,706.00
2019-04-05T20:21:09.816Z,635.03
2019-04-05T20:26:15.787Z,1542.27
